CYCB

Cambridge Bay Airport

Cambridge Bay, Canada
METAR CYCB 201033Z 36006KT 15SM VCSH FEW020 SCT095 M24/M30 A2993 RMK SC1AC2 SLP143
Observed Flight Rules
Jan-20 @ 10:33 UTC (28 minutes ago) Visual Flight Rules
Wind Visibility Clouds
360° at 6 knots 15 miles
  • Few at 2,000' AGL
  • Scattered at 9,500' AGL
Temperatures Readings
Current -24°C / -11°F
Dewpoint -30°C / -22°F
Humidity 58%
Altimeter 29.93" Hg
Pressure 1014.3 hPa
Elevation 27
METAR CYCB 201033Z 36006KT 15SM VCSH FEW020 SCT095 M24/M30 A2993 RMK SC1AC2 SLP143
Observed Flight Rules
Jan-20 @ 10:33 UTC
(28 minutes ago)
VFR
Wind Visibility
360° at 6 knots 15 miles
Clouds
  • Few at 2,000' AGL
  • Scattered at 9,500' AGL
Temperature Dewpoint
-24°C / -11°F -30°C / -22°F
Humidity Altimeter Pressure
58% 29.93" Hg 1014.3 hPa